createdAt,value
2024-05-09T00:00:46.294Z,50.877075
2024-05-09T00:01:46.227Z,50.877140
2024-05-09T00:02:46.135Z,50.877159
2024-05-09T00:03:46.257Z,50.877117
2024-05-09T00:04:46.200Z,50.877163
2024-05-09T00:05:46.147Z,50.877167
2024-05-09T00:06:46.077Z,50.877132
2024-05-09T00:07:46.135Z,50.877163
2024-05-09T00:08:46.067Z,50.877163
2024-05-09T00:09:46.053Z,50.877171
2024-05-09T00:10:46.147Z,50.877159
2024-05-09T00:11:46.100Z,50.877159
2024-05-09T00:12:46.020Z,50.877178
2024-05-09T00:13:46.046Z,50.877201
2024-05-09T00:14:46.011Z,50.877201
2024-05-09T00:15:46.009Z,50.877209
2024-05-09T00:16:46.036Z,50.877209
2024-05-09T00:17:46.072Z,50.877178
2024-05-09T00:18:46.025Z,50.877159
2024-05-09T00:19:46.040Z,50.877159
2024-05-09T00:20:46.016Z,50.877171
2024-05-09T00:21:45.940Z,50.877174
2024-05-09T00:22:46.021Z,50.877190
2024-05-09T00:23:45.905Z,50.877186
2024-05-09T00:24:45.895Z,50.877186
2024-05-09T00:25:46.056Z,50.877159
2024-05-09T00:26:45.899Z,50.877167
2024-05-09T00:27:45.882Z,50.877209
2024-05-09T00:28:45.875Z,50.877190
2024-05-09T00:29:45.891Z,50.877193
2024-05-09T00:30:45.842Z,50.877197
2024-05-09T00:31:45.847Z,50.877197
2024-05-09T00:32:45.908Z,50.877193
2024-05-09T00:33:45.921Z,50.877193
2024-05-09T00:34:45.838Z,50.877163
2024-05-09T00:35:45.811Z,50.877186
2024-05-09T00:36:45.802Z,50.877197
2024-05-09T00:37:45.769Z,50.877205
2024-05-09T00:38:45.773Z,50.877209
2024-05-09T00:39:45.784Z,50.877201
2024-05-09T00:40:45.824Z,50.877232
2024-05-09T00:41:45.798Z,50.877197
2024-05-09T00:42:45.728Z,50.877209
2024-05-09T00:43:45.764Z,50.877232
2024-05-09T00:44:45.726Z,50.877228
2024-05-09T00:45:45.691Z,50.877213
2024-05-09T00:46:45.701Z,50.877232
2024-05-09T00:47:45.738Z,50.877216
2024-05-09T00:48:45.712Z,50.877197
2024-05-09T00:49:45.754Z,50.877201
2024-05-09T00:50:45.787Z,50.877182
2024-05-09T00:51:45.627Z,50.877186
2024-05-09T00:52:45.674Z,50.877186
2024-05-09T00:53:45.650Z,50.877190
2024-05-09T00:54:45.593Z,50.877197
2024-05-09T00:55:46.753Z,50.877163
2024-05-09T00:56:45.596Z,50.877190
2024-05-09T00:57:45.575Z,50.877178
2024-05-09T00:58:45.616Z,50.877190
2024-05-09T00:59:45.548Z,50.877201
2024-05-09T01:00:45.585Z,50.877197
2024-05-09T01:01:45.653Z,50.877193
2024-05-09T01:02:45.630Z,50.877190
2024-05-09T01:03:47.950Z,50.877205
2024-05-09T01:04:46.670Z,50.877205
2024-05-09T01:05:45.513Z,50.877174
2024-05-09T01:06:45.504Z,50.877190
2024-05-09T01:07:45.541Z,50.877201
2024-05-09T01:08:45.549Z,50.877197
2024-05-09T01:09:45.441Z,50.877182
2024-05-09T01:10:48.420Z,50.877182
2024-05-09T01:11:45.483Z,50.877148
2024-05-09T01:12:45.416Z,50.877178
2024-05-09T01:13:45.526Z,50.877186
2024-05-09T01:14:45.410Z,50.877205
2024-05-09T01:15:45.396Z,50.877205
2024-05-09T01:16:45.401Z,50.877193
2024-05-09T01:17:45.645Z,50.877190
2024-05-09T01:18:45.481Z,50.877186
2024-05-09T01:19:45.525Z,50.877171
2024-05-09T01:20:46.443Z,50.877174
2024-05-09T01:21:45.328Z,50.877159
2024-05-09T01:22:45.366Z,50.877163
2024-05-09T01:23:45.360Z,50.877163
2024-05-09T01:24:45.327Z,50.877163
2024-05-09T01:25:46.297Z,50.877186
2024-05-09T01:26:45.282Z,50.877186
2024-05-09T01:27:45.262Z,50.877193
2024-05-09T01:28:45.314Z,50.877190
2024-05-09T01:29:45.252Z,50.877186
2024-05-09T01:30:45.285Z,50.877193
2024-05-09T01:31:45.303Z,50.877193
2024-05-09T01:32:45.525Z,50.877178
2024-05-09T01:33:45.424Z,50.877155
2024-05-09T01:34:45.238Z,50.877136
2024-05-09T01:35:45.199Z,50.877171
2024-05-09T01:36:45.193Z,50.877167
2024-05-09T01:37:45.203Z,50.877193
2024-05-09T01:38:45.190Z,50.877186
2024-05-09T01:39:45.153Z,50.877182
2024-05-09T01:40:45.236Z,50.877182
2024-05-09T01:41:45.136Z,50.877201
2024-05-09T01:42:45.139Z,50.877174
2024-05-09T01:43:45.137Z,50.877182
2024-05-09T01:44:45.108Z,50.877163
2024-05-09T01:45:45.099Z,50.877171
2024-05-09T01:46:45.154Z,50.877132
2024-05-09T01:47:45.166Z,50.877151
2024-05-09T01:48:45.201Z,50.877174
2024-05-09T01:49:45.121Z,50.877171
2024-05-09T01:50:45.113Z,50.877178
2024-05-09T01:51:45.024Z,50.877197
2024-05-09T01:52:45.095Z,50.877213
2024-05-09T01:53:45.053Z,50.877171
2024-05-09T01:54:45.030Z,50.877178
2024-05-09T01:55:45.150Z,50.877182
2024-05-09T01:56:44.987Z,50.877186
2024-05-09T01:57:44.967Z,50.877148
2024-05-09T01:58:44.983Z,50.877190
2024-05-09T01:59:44.972Z,50.877201
2024-05-09T02:00:45.009Z,50.877193
2024-05-09T02:01:56.356Z,50.877216
2024-05-09T02:02:46.050Z,50.877213
2024-05-09T02:03:45.194Z,50.877213
2024-05-09T02:04:45.040Z,50.877209
2024-05-09T02:05:45.591Z,50.877197
2024-05-09T02:06:44.886Z,50.877197
2024-05-09T02:07:44.946Z,50.877201
2024-05-09T02:08:44.939Z,50.877186
2024-05-09T02:09:44.845Z,50.877186
2024-05-09T02:10:45.150Z,50.877190
2024-05-09T02:11:44.915Z,50.877174
2024-05-09T02:12:44.842Z,50.877205
2024-05-09T02:13:44.885Z,50.877201
2024-05-09T02:14:44.799Z,50.877205
2024-05-09T02:15:44.884Z,50.877182
2024-05-09T02:16:44.845Z,50.877178
2024-05-09T02:17:45.248Z,50.877193
2024-05-09T02:18:44.901Z,50.877209
2024-05-09T02:19:44.820Z,50.877216
2024-05-09T02:20:44.821Z,50.877201
2024-05-09T02:21:44.779Z,50.877197
2024-05-09T02:22:44.780Z,50.877205
2024-05-09T02:23:44.787Z,50.877174
2024-05-09T02:24:44.695Z,50.877186
2024-05-09T02:25:44.745Z,50.877193
2024-05-09T02:26:44.682Z,50.877186
2024-05-09T02:27:44.691Z,50.877201
2024-05-09T02:28:44.702Z,50.877216
2024-05-09T02:29:44.642Z,50.877209
2024-05-09T02:30:44.638Z,50.877216
2024-05-09T02:31:44.671Z,50.877213
2024-05-09T02:32:44.716Z,50.877182
2024-05-09T02:33:44.782Z,50.877201
2024-05-09T02:34:44.643Z,50.877186
2024-05-09T02:35:44.696Z,50.877205
2024-05-09T02:36:44.586Z,50.877232
2024-05-09T02:37:44.707Z,50.877228
2024-05-09T02:38:44.613Z,50.877239
2024-05-09T02:39:44.542Z,50.877224
2024-05-09T02:40:44.560Z,50.877213
2024-05-09T02:41:44.535Z,50.877197
2024-05-09T02:42:44.514Z,50.877209
2024-05-09T02:43:44.554Z,50.877193
2024-05-09T02:44:44.494Z,50.877213
2024-05-09T02:45:44.488Z,50.877201
2024-05-09T02:46:44.483Z,50.877201
2024-05-09T02:47:44.716Z,50.877201
2024-05-09T02:48:44.540Z,50.877213
2024-05-09T02:49:44.493Z,50.877201
2024-05-09T02:50:44.916Z,50.877171
2024-05-09T02:51:44.438Z,50.877193
2024-05-09T02:52:44.446Z,50.877193
2024-05-09T02:53:44.486Z,50.877197
2024-05-09T02:54:44.404Z,50.877209
2024-05-09T02:55:44.425Z,50.877197
2024-05-09T02:56:44.381Z,50.877190
2024-05-09T02:57:44.371Z,50.877182
2024-05-09T02:58:44.415Z,50.877174
2024-05-09T02:59:44.355Z,50.877201
2024-05-09T03:00:44.407Z,50.877182
2024-05-09T03:01:44.385Z,50.877205
2024-05-09T03:02:44.557Z,50.877193
2024-05-09T03:03:44.432Z,50.877209
2024-05-09T03:04:44.455Z,50.877216
2024-05-09T03:05:44.879Z,50.877190
2024-05-09T03:06:44.281Z,50.877209
2024-05-09T03:07:44.303Z,50.877205
2024-05-09T03:08:44.312Z,50.877201
2024-05-09T03:09:44.452Z,50.877182
2024-05-09T03:10:44.277Z,50.877186
2024-05-09T03:11:44.328Z,50.877182
2024-05-09T03:12:44.255Z,50.877193
2024-05-09T03:13:44.248Z,50.877182
2024-05-09T03:14:44.247Z,50.877151
2024-05-09T03:15:44.220Z,50.877209
2024-05-09T03:16:44.246Z,50.877209
2024-05-09T03:17:44.320Z,50.877254
2024-05-09T03:18:44.296Z,50.877277
2024-05-09T03:19:44.202Z,50.877235
2024-05-09T03:20:44.666Z,50.877197
2024-05-09T03:21:44.153Z,50.877190
2024-05-09T03:22:44.172Z,50.877190
2024-05-09T03:23:44.264Z,50.877205
2024-05-09T03:24:44.095Z,50.877178
2024-05-09T03:25:44.107Z,50.877209
2024-05-09T03:26:44.096Z,50.877228
2024-05-09T03:27:44.079Z,50.877258
2024-05-09T03:28:44.076Z,50.877193
2024-05-09T03:29:44.043Z,50.877182
2024-05-09T03:30:44.037Z,50.877224
2024-05-09T03:31:44.185Z,50.877193
2024-05-09T03:32:44.129Z,50.877193
2024-05-09T03:33:44.246Z,50.877117
2024-05-09T03:34:44.017Z,50.877163
2024-05-09T03:35:43.976Z,50.877201
2024-05-09T03:36:43.978Z,50.877251
2024-05-09T03:37:44.049Z,50.877274
2024-05-09T03:38:44.014Z,50.877270
2024-05-09T03:39:43.937Z,50.877247
2024-05-09T03:40:44.004Z,50.877247
2024-05-09T03:41:43.950Z,50.877220
2024-05-09T03:42:44.919Z,50.877224
2024-05-09T03:43:43.956Z,50.877205
2024-05-09T03:44:43.894Z,50.877216
2024-05-09T03:45:43.908Z,50.877197
2024-05-09T03:46:44.016Z,50.877220
2024-05-09T03:47:44.179Z,50.877201
2024-05-09T03:48:43.913Z,50.877182
2024-05-09T03:49:43.901Z,50.877232
2024-05-09T03:50:43.901Z,50.877228
2024-05-09T03:51:43.868Z,50.877228
2024-05-09T03:52:43.835Z,50.877224
2024-05-09T03:53:43.821Z,50.877216
2024-05-09T03:54:43.796Z,50.877220
2024-05-09T03:55:43.973Z,50.877224
2024-05-09T03:56:43.863Z,50.877224
2024-05-09T03:57:43.771Z,50.877213
2024-05-09T03:58:43.801Z,50.877216
2024-05-09T03:59:43.741Z,50.877228
2024-05-09T04:00:43.764Z,50.877228
2024-05-09T04:01:43.873Z,50.877178
2024-05-09T04:02:43.910Z,50.877197
2024-05-09T04:03:43.839Z,50.877201
2024-05-09T04:04:43.776Z,50.877216
2024-05-09T04:05:44.387Z,50.877251
2024-05-09T04:06:43.697Z,50.877235
2024-05-09T04:07:43.753Z,50.877228
2024-05-09T04:08:43.718Z,50.877213
2024-05-09T04:09:43.664Z,50.877224
2024-05-09T04:10:43.685Z,50.877243
2024-05-09T04:11:43.756Z,50.877235
2024-05-09T04:12:43.620Z,50.877247
2024-05-09T04:13:43.646Z,50.877220
2024-05-09T04:14:43.599Z,50.877209
2024-05-09T04:15:43.593Z,50.877209
2024-05-09T04:16:43.574Z,50.877224
2024-05-09T04:17:43.732Z,50.877251
2024-05-09T04:18:43.624Z,50.877232
2024-05-09T04:19:44.558Z,50.877224
2024-05-09T04:20:43.587Z,50.877224
2024-05-09T04:21:43.551Z,50.877239
2024-05-09T04:22:43.506Z,50.877228
2024-05-09T04:23:43.550Z,50.877220
2024-05-09T04:24:43.506Z,50.877182
2024-05-09T04:25:43.625Z,50.877201
2024-05-09T04:26:43.533Z,50.877216
2024-05-09T04:27:43.512Z,50.877186
2024-05-09T04:28:43.440Z,50.877205
2024-05-09T04:29:43.435Z,50.877232
2024-05-09T04:30:43.739Z,50.877201
2024-05-09T04:31:43.422Z,50.877178
2024-05-09T04:32:43.487Z,50.877197
2024-05-09T04:33:43.481Z,50.877190
2024-05-09T04:34:43.409Z,50.877209
2024-05-09T04:35:43.923Z,50.877213
2024-05-09T04:36:44.623Z,50.877193
2024-05-09T04:37:44.416Z,50.877209
2024-05-09T04:38:44.373Z,50.877239
2024-05-09T04:39:43.343Z,50.877228
2024-05-09T04:40:43.361Z,50.877205
2024-05-09T04:41:43.350Z,50.877197
2024-05-09T04:42:43.304Z,50.877216
2024-05-09T04:43:43.300Z,50.877213
2024-05-09T04:44:43.303Z,50.877201
2024-05-09T04:45:43.274Z,50.877201
2024-05-09T04:46:43.317Z,50.877193
2024-05-09T04:47:43.394Z,50.877193
2024-05-09T04:48:43.579Z,50.877197
2024-05-09T04:49:43.247Z,50.877193
2024-05-09T04:50:43.261Z,50.877201
2024-05-09T04:51:43.244Z,50.877205
2024-05-09T04:52:43.222Z,50.877205
2024-05-09T04:53:43.315Z,50.877209
2024-05-09T04:54:43.192Z,50.877213
2024-05-09T04:55:43.180Z,50.877205
2024-05-09T04:56:43.224Z,50.877197
2024-05-09T04:57:43.194Z,50.877197
2024-05-09T04:58:43.161Z,50.877171
2024-05-09T04:59:43.143Z,50.877190
2024-05-09T05:00:43.223Z,50.877205
2024-05-09T05:01:43.147Z,50.877224
2024-05-09T05:02:43.273Z,50.877220
2024-05-09T05:03:43.258Z,50.877216
2024-05-09T05:04:43.184Z,50.877235
2024-05-09T05:05:44.093Z,50.877209
2024-05-09T05:06:43.072Z,50.877220
2024-05-09T05:07:43.051Z,50.877251
2024-05-09T05:08:43.063Z,50.877224
2024-05-09T05:09:43.033Z,50.877216
2024-05-09T05:10:43.088Z,50.877205
2024-05-09T05:11:43.136Z,50.877209
2024-05-09T05:12:43.022Z,50.877197
2024-05-09T05:13:43.027Z,50.877220
2024-05-09T05:14:43.007Z,50.877216
2024-05-09T05:15:42.983Z,50.877220
2024-05-09T05:16:42.965Z,50.877182
2024-05-09T05:17:43.126Z,50.877155
2024-05-09T05:18:43.083Z,50.877201
2024-05-09T05:19:42.982Z,50.877193
2024-05-09T05:20:43.123Z,50.877197
2024-05-09T05:21:42.953Z,50.877205
2024-05-09T05:22:42.911Z,50.877193
2024-05-09T05:23:42.955Z,50.877197
2024-05-09T05:24:42.896Z,50.877186
2024-05-09T05:25:42.896Z,50.877201
2024-05-09T05:26:42.915Z,50.877213
2024-05-09T05:27:42.854Z,50.877228
2024-05-09T05:28:42.876Z,50.877193
2024-05-09T05:29:42.894Z,50.877167
2024-05-09T05:30:42.825Z,50.877125
2024-05-09T05:31:43.897Z,50.877159
2024-05-09T05:32:42.944Z,50.877178
2024-05-09T05:33:42.906Z,50.877186
2024-05-09T05:34:42.794Z,50.877171
2024-05-09T05:35:42.959Z,50.877193
2024-05-09T05:36:42.786Z,50.877220
2024-05-09T05:37:42.766Z,50.877178
2024-05-09T05:38:42.998Z,50.877182
2024-05-09T05:39:42.780Z,50.877178
2024-05-09T05:40:42.819Z,50.877148
2024-05-09T05:41:42.792Z,50.877144
2024-05-09T05:42:42.728Z,50.877171
2024-05-09T05:43:42.728Z,50.877182
2024-05-09T05:44:42.692Z,50.877186
2024-05-09T05:45:42.694Z,50.877190
2024-05-09T05:46:42.678Z,50.877209
2024-05-09T05:47:42.807Z,50.877174
2024-05-09T05:48:42.959Z,50.877155
2024-05-09T05:49:42.678Z,50.877159
2024-05-09T05:50:42.710Z,50.877151
2024-05-09T05:51:42.630Z,50.877201
2024-05-09T05:52:42.613Z,50.877159
2024-05-09T05:53:42.769Z,50.877186
2024-05-09T05:54:42.592Z,50.877190
2024-05-09T05:55:42.621Z,50.877140
2024-05-09T05:56:42.640Z,50.877182
2024-05-09T05:57:42.568Z,50.877201
2024-05-09T05:58:42.574Z,50.877171
2024-05-09T05:59:42.619Z,50.877155
2024-05-09T06:00:43.123Z,50.877163
2024-05-09T06:01:42.538Z,50.877247
2024-05-09T06:02:42.540Z,50.877228
2024-05-09T06:03:42.760Z,50.877235
2024-05-09T06:04:42.571Z,50.877205
2024-05-09T06:05:42.549Z,50.877163
2024-05-09T06:06:42.492Z,50.877144
2024-05-09T06:07:42.478Z,50.877144
2024-05-09T06:08:42.530Z,50.877079
2024-05-09T06:09:42.436Z,50.877182
2024-05-09T06:10:42.781Z,50.877209
2024-05-09T06:11:42.492Z,50.877155
2024-05-09T06:12:43.432Z,50.877201
2024-05-09T06:13:42.407Z,50.877251
2024-05-09T06:14:42.440Z,50.877274
2024-05-09T06:15:42.857Z,50.877193
2024-05-09T06:16:42.377Z,50.877121
2024-05-09T06:17:42.540Z,50.877140
2024-05-09T06:18:42.500Z,50.877193
2024-05-09T06:19:42.398Z,50.877197
2024-05-09T06:20:43.709Z,50.877182
2024-05-09T06:21:42.341Z,50.877190
2024-05-09T06:22:42.337Z,50.877239
2024-05-09T06:23:42.384Z,50.877209
2024-05-09T06:24:42.287Z,50.877209
2024-05-09T06:25:42.671Z,50.877174
2024-05-09T06:26:42.329Z,50.877201
2024-05-09T06:27:42.251Z,50.877197
2024-05-09T06:28:42.248Z,50.877159
2024-05-09T06:29:42.350Z,50.877163
2024-05-09T06:30:43.284Z,50.877151
2024-05-09T06:31:42.234Z,50.877182
2024-05-09T06:32:42.292Z,50.877186
2024-05-09T06:33:42.319Z,50.877178
2024-05-09T06:34:42.320Z,50.877190
2024-05-09T06:35:42.544Z,50.877232
2024-05-09T06:36:42.191Z,50.877209
2024-05-09T06:37:42.162Z,50.877197
2024-05-09T06:38:42.318Z,50.877186
2024-05-09T06:39:42.138Z,50.877178
2024-05-09T06:40:43.628Z,50.877167
2024-05-09T06:41:42.315Z,50.877201
2024-05-09T06:42:42.116Z,50.877171
2024-05-09T06:43:42.103Z,50.877186
2024-05-09T06:44:42.162Z,50.877178
2024-05-09T06:45:42.078Z,50.877186
2024-05-09T06:46:42.199Z,50.877186
2024-05-09T06:47:42.151Z,50.877190
2024-05-09T06:48:42.311Z,50.877205
2024-05-09T06:49:42.055Z,50.877213
2024-05-09T06:50:42.095Z,50.877220
2024-05-09T06:51:42.026Z,50.877193
2024-05-09T06:52:42.067Z,50.877209
2024-05-09T06:53:42.065Z,50.877205
2024-05-09T06:54:42.003Z,50.877213
2024-05-09T06:55:41.986Z,50.877197
2024-05-09T06:56:42.033Z,50.877216
2024-05-09T06:57:43.160Z,50.877197
2024-05-09T06:58:42.964Z,50.877213
2024-05-09T06:59:41.991Z,50.877190
2024-05-09T07:00:42.498Z,50.877190
2024-05-09T07:01:41.939Z,50.877205
2024-05-09T07:02:42.081Z,50.877220
2024-05-09T07:03:42.003Z,50.877197
2024-05-09T07:04:41.957Z,50.877197
2024-05-09T07:05:41.954Z,50.877205
2024-05-09T07:06:42.900Z,50.877201
2024-05-09T07:07:41.875Z,50.877209
2024-05-09T07:08:41.928Z,50.877193
2024-05-09T07:09:41.850Z,50.877163
2024-05-09T07:10:41.867Z,50.877155
2024-05-09T07:11:41.965Z,50.877182
2024-05-09T07:12:41.842Z,50.877209
2024-05-09T07:13:41.845Z,50.877182
2024-05-09T07:14:41.965Z,50.877182
2024-05-09T07:15:41.898Z,50.877193
2024-05-09T07:16:41.794Z,50.877216
2024-05-09T07:17:41.920Z,50.877205
2024-05-09T07:18:41.957Z,50.877186
2024-05-09T07:19:42.754Z,50.877201
2024-05-09T07:20:41.947Z,50.877190
2024-05-09T07:21:41.732Z,50.877121
2024-05-09T07:22:41.742Z,50.877098
2024-05-09T07:23:43.734Z,50.877110
2024-05-09T07:24:41.702Z,50.877121
2024-05-09T07:25:41.941Z,50.877106
2024-05-09T07:26:41.743Z,50.877186
2024-05-09T07:27:41.673Z,50.877209
2024-05-09T07:28:41.717Z,50.877224
2024-05-09T07:29:41.723Z,50.877190
2024-05-09T07:30:41.645Z,50.877163
2024-05-09T07:31:41.655Z,50.877228
2024-05-09T07:32:41.766Z,50.877232
2024-05-09T07:33:41.722Z,50.877258
2024-05-09T07:34:41.673Z,50.877228
2024-05-09T07:35:41.654Z,50.877209
2024-05-09T07:36:41.596Z,50.877182
2024-05-09T07:37:41.576Z,50.877193
2024-05-09T07:38:41.726Z,50.877228
2024-05-09T07:39:41.582Z,50.877216
2024-05-09T07:40:41.584Z,50.877193
2024-05-09T07:41:41.624Z,50.877247
2024-05-09T07:42:41.532Z,50.877205
2024-05-09T07:43:41.520Z,50.877182
2024-05-09T07:44:41.530Z,50.877190
2024-05-09T07:45:50.391Z,50.877148
2024-05-09T07:49:12.442Z,50.877174
2024-05-09T07:51:31.960Z,50.877190
2024-05-09T07:53:34.285Z,50.877159
2024-05-09T07:53:46.934Z,50.877190
2024-05-09T07:54:42.551Z,50.877190
2024-05-09T07:55:41.564Z,50.877186
2024-05-09T07:56:41.759Z,50.877182
2024-05-09T07:57:41.430Z,50.877171
2024-05-09T07:58:41.376Z,50.877190
2024-05-09T07:59:41.368Z,50.877163
2024-05-09T08:00:41.543Z,50.877174
2024-05-09T08:01:41.444Z,50.877167
2024-05-09T08:02:41.367Z,50.877155
2024-05-09T08:03:42.451Z,50.877174
2024-05-09T08:04:41.570Z,50.877167
2024-05-09T08:05:41.477Z,50.877178
2024-05-09T08:06:41.359Z,50.877197
2024-05-09T08:07:41.303Z,50.877197
2024-05-09T08:08:41.277Z,50.877186
2024-05-09T08:09:41.341Z,50.877213
2024-05-09T08:10:41.451Z,50.877205
2024-05-09T08:11:41.264Z,50.877182
2024-05-09T08:12:41.380Z,50.877178
2024-05-09T08:13:41.238Z,50.877178
2024-05-09T08:14:41.236Z,50.877182
2024-05-09T08:15:41.318Z,50.877209
2024-05-09T08:16:41.223Z,50.877197
2024-05-09T08:17:41.306Z,50.877220
2024-05-09T08:18:41.333Z,50.877209
2024-05-09T08:19:41.239Z,50.877220
2024-05-09T08:20:41.170Z,50.877201
2024-05-09T08:21:41.197Z,50.877205
2024-05-09T08:22:41.148Z,50.877193
2024-05-09T08:23:41.142Z,50.877178
2024-05-09T08:24:41.170Z,50.877190
2024-05-09T08:25:41.131Z,50.877197
2024-05-09T08:26:41.093Z,50.877205
2024-05-09T08:27:41.122Z,50.877205
2024-05-09T08:28:41.101Z,50.877197
2024-05-09T08:29:41.129Z,50.877186
2024-05-09T08:30:41.291Z,50.877174
2024-05-09T08:31:41.185Z,50.877197
2024-05-09T08:32:41.116Z,50.877205
2024-05-09T08:33:41.201Z,50.877197
2024-05-09T08:34:41.066Z,50.877213
2024-05-09T08:35:41.017Z,50.877209
2024-05-09T08:36:41.057Z,50.877209
2024-05-09T08:37:41.235Z,50.877197
2024-05-09T08:38:41.005Z,50.877224
2024-05-09T08:39:40.993Z,50.877220
2024-05-09T08:40:41.061Z,50.877197
2024-05-09T08:41:40.967Z,50.877205
2024-05-09T08:42:40.959Z,50.877274
2024-05-09T08:43:42.174Z,50.877277
2024-05-09T08:44:42.165Z,50.877258
2024-05-09T08:45:41.012Z,50.877243
2024-05-09T08:46:40.893Z,50.877201
2024-05-09T08:47:40.934Z,50.877209
2024-05-09T08:48:40.987Z,50.877186
2024-05-09T08:49:41.636Z,50.877228
2024-05-09T08:50:42.083Z,50.877228
2024-05-09T08:51:40.878Z,50.877213
2024-05-09T08:52:40.850Z,50.877213
2024-05-09T08:53:40.843Z,50.877216
2024-05-09T08:54:40.886Z,50.877186
2024-05-09T08:55:43.337Z,50.877220
2024-05-09T08:56:40.812Z,50.877228
2024-05-09T08:57:40.848Z,50.877209
2024-05-09T08:58:40.806Z,50.877201
2024-05-09T08:59:40.782Z,50.877197
2024-05-09T09:00:40.851Z,50.877201
2024-05-09T09:01:41.304Z,50.877201
2024-05-09T09:02:41.852Z,50.877209
2024-05-09T09:03:40.887Z,50.877209
2024-05-09T09:04:40.823Z,50.877209
2024-05-09T09:05:41.067Z,50.877193
2024-05-09T09:06:40.778Z,50.877190
2024-05-09T09:07:40.701Z,50.877205
2024-05-09T09:08:40.713Z,50.877129
2024-05-09T09:09:40.705Z,50.877182
2024-05-09T09:10:40.752Z,50.877193
2024-05-09T09:11:40.709Z,50.877209
2024-05-09T09:12:40.671Z,50.877239
2024-05-09T09:13:41.656Z,50.877228
2024-05-09T09:14:40.666Z,50.877201
2024-05-09T09:15:40.652Z,50.877201
2024-05-09T09:16:40.606Z,50.877213
2024-05-09T09:17:40.673Z,50.877220
2024-05-09T09:18:40.934Z,50.877201
2024-05-09T09:19:40.641Z,50.877193
2024-05-09T09:20:40.637Z,50.877209
2024-05-09T09:21:40.603Z,50.877228
2024-05-09T09:22:40.541Z,50.877209
2024-05-09T09:23:40.533Z,50.877201
2024-05-09T09:24:40.566Z,50.877174
2024-05-09T09:25:40.584Z,50.877201
2024-05-09T09:26:40.508Z,50.877178
2024-05-09T09:27:40.549Z,50.877171
2024-05-09T09:28:40.493Z,50.877224
2024-05-09T09:29:40.505Z,50.877220
2024-05-09T09:30:40.612Z,50.877178
2024-05-09T09:31:40.472Z,50.877167
2024-05-09T09:32:40.487Z,50.877197
2024-05-09T09:33:40.571Z,50.877216
2024-05-09T09:34:40.516Z,50.877190
2024-05-09T09:35:40.658Z,50.877201
2024-05-09T09:36:40.432Z,50.877171
2024-05-09T09:37:40.405Z,50.877182
2024-05-09T09:38:40.394Z,50.877186
2024-05-09T09:39:40.412Z,50.877201
2024-05-09T09:40:44.886Z,50.877216
2024-05-09T09:41:41.365Z,50.877220
2024-05-09T09:42:40.461Z,50.877201
2024-05-09T09:43:40.341Z,50.877171
2024-05-09T09:44:42.218Z,50.877163
2024-05-09T09:45:40.382Z,50.877182
2024-05-09T09:46:40.332Z,50.877178
2024-05-09T09:47:40.462Z,50.877148
2024-05-09T09:48:40.639Z,50.877148
2024-05-09T09:49:40.372Z,50.877148
2024-05-09T09:50:40.305Z,50.877148
2024-05-09T09:51:40.293Z,50.877148
2024-05-09T09:52:40.283Z,50.877148
2024-05-09T09:53:40.255Z,50.877148
2024-05-09T09:54:40.272Z,50.877148
2024-05-09T09:55:40.238Z,50.877182
2024-05-09T09:56:40.231Z,50.877144
2024-05-09T09:57:40.262Z,50.877205
2024-05-09T09:58:40.251Z,50.877254
2024-05-09T09:59:40.207Z,50.877258
2024-05-09T10:00:40.283Z,50.877201
2024-05-09T10:01:40.260Z,50.877075
2024-05-09T10:02:40.195Z,50.877106
2024-05-09T10:03:40.293Z,50.877193
2024-05-09T10:04:40.282Z,50.877224
2024-05-09T10:05:42.194Z,50.877285
2024-05-09T10:06:40.149Z,50.877460
2024-05-09T10:07:40.109Z,50.877457
2024-05-09T10:08:40.135Z,50.877380
2024-05-09T10:09:40.130Z,50.877304
2024-05-09T10:10:40.301Z,50.877342
2024-05-09T10:11:45.379Z,50.877308
2024-05-09T10:12:41.142Z,50.877319
2024-05-09T10:13:40.053Z,50.877380
2024-05-09T10:14:40.071Z,50.877411
2024-05-09T10:15:40.071Z,50.877415
2024-05-09T10:16:40.030Z,50.877392
2024-05-09T10:17:40.103Z,50.877392
2024-05-09T10:18:40.753Z,50.877373
2024-05-09T10:19:40.046Z,50.877419
2024-05-09T10:20:39.995Z,50.877445
2024-05-09T10:21:40.049Z,50.877472
2024-05-09T10:22:39.984Z,50.877350
2024-05-09T10:23:39.983Z,50.877346
2024-05-09T10:24:40.000Z,50.877281
2024-05-09T10:25:39.932Z,50.877220
2024-05-09T10:26:39.946Z,50.877129
2024-05-09T10:27:39.986Z,50.877117
2024-05-09T10:28:39.910Z,50.877148
2024-05-09T10:29:39.921Z,50.877125
2024-05-09T10:30:40.713Z,50.877117
2024-05-09T10:31:40.019Z,50.877151
2024-05-09T10:32:40.026Z,50.877171
2024-05-09T10:33:40.042Z,50.877155
2024-05-09T10:34:39.914Z,50.877155
2024-05-09T10:35:39.858Z,50.877163
2024-05-09T10:36:39.901Z,50.877155
2024-05-09T10:37:39.818Z,50.877163
2024-05-09T10:38:39.806Z,50.877155
2024-05-09T10:39:39.906Z,50.877151
2024-05-09T10:40:39.975Z,50.877163
2024-05-09T10:41:39.794Z,50.877140
2024-05-09T10:42:39.799Z,50.877155
2024-05-09T10:43:39.764Z,50.877151
2024-05-09T10:44:39.746Z,50.877136
2024-05-09T10:45:39.727Z,50.877132
2024-05-09T10:46:39.737Z,50.877121
2024-05-09T10:47:39.807Z,50.877140
2024-05-09T10:48:39.848Z,50.877163
2024-05-09T10:49:39.731Z,50.877132
2024-05-09T10:50:39.680Z,50.877155
2024-05-09T10:51:39.711Z,50.877163
2024-05-09T10:52:39.664Z,50.877167
2024-05-09T10:53:39.681Z,50.877167
2024-05-09T10:54:39.668Z,50.877167
2024-05-09T10:55:39.630Z,50.877190
2024-05-09T10:56:39.623Z,50.877174
2024-05-09T10:57:39.674Z,50.877174
2024-05-09T10:58:39.618Z,50.877163
2024-05-09T10:59:39.616Z,50.877144
2024-05-09T11:00:39.657Z,50.877129
2024-05-09T11:01:39.684Z,50.877186
2024-05-09T11:02:39.803Z,50.877182
2024-05-09T11:03:39.981Z,50.877186
2024-05-09T11:04:39.628Z,50.877182
2024-05-09T11:05:39.603Z,50.877235
2024-05-09T11:06:39.591Z,50.877266
2024-05-09T11:07:39.522Z,50.877262
2024-05-09T11:08:39.553Z,50.877285
2024-05-09T11:09:39.551Z,50.877209
2024-05-09T11:10:39.629Z,50.877205
2024-05-09T11:11:39.510Z,50.877197
2024-05-09T11:12:39.537Z,50.877232
2024-05-09T11:13:39.454Z,50.877213
2024-05-09T11:14:39.461Z,50.877151
2024-05-09T11:15:39.524Z,50.877148
2024-05-09T11:16:39.447Z,50.877094
2024-05-09T11:17:39.457Z,50.877148
2024-05-09T11:18:39.783Z,50.877182
2024-05-09T11:19:39.501Z,50.877232
2024-05-09T11:20:39.499Z,50.877213
2024-05-09T11:21:39.432Z,50.877243
2024-05-09T11:22:39.387Z,50.877216
2024-05-09T11:23:39.356Z,50.877193
2024-05-09T11:24:39.387Z,50.877190
2024-05-09T11:25:39.335Z,50.877129
2024-05-09T11:26:39.367Z,50.877155
2024-05-09T11:27:39.463Z,50.877251
2024-05-09T11:28:39.329Z,50.877235